sensor_id;sensor_type;location;lat;lon;timestamp;P1;durP1;ratioP1;P2;durP2;ratioP2
40847;SDS011;26570;50.962;5.340;2022-08-20T00:01:54;5.43;;;1.60;;
40847;SDS011;26570;50.962;5.340;2022-08-20T00:04:39;5.28;;;2.15;;
40847;SDS011;26570;50.962;5.340;2022-08-20T00:07:24;3.60;;;1.75;;
40847;SDS011;26570;50.962;5.340;2022-08-20T00:10:09;3.55;;;2.00;;
40847;SDS011;26570;50.962;5.340;2022-08-20T00:12:54;7.90;;;2.35;;
40847;SDS011;26570;50.962;5.340;2022-08-20T00:15:40;6.18;;;2.38;;
40847;SDS011;26570;50.962;5.340;2022-08-20T00:18:25;10.20;;;2.33;;
40847;SDS011;26570;50.962;5.340;2022-08-20T00:21:12;4.20;;;2.28;;
40847;SDS011;26570;50.962;5.340;2022-08-20T00:23:59;7.05;;;2.70;;
40847;SDS011;26570;50.962;5.340;2022-08-20T00:26:44;4.57;;;2.83;;
40847;SDS011;26570;50.962;5.340;2022-08-20T00:29:28;7.97;;;2.38;;
40847;SDS011;26570;50.962;5.340;2022-08-20T00:32:13;5.43;;;2.90;;
40847;SDS011;26570;50.962;5.340;2022-08-20T00:34:58;5.15;;;3.47;;
40847;SDS011;26570;50.962;5.340;2022-08-20T00:37:43;7.30;;;3.35;;
40847;SDS011;26570;50.962;5.340;2022-08-20T00:40:29;7.20;;;3.65;;
40847;SDS011;26570;50.962;5.340;2022-08-20T00:43:37;8.50;;;3.78;;
40847;SDS011;26570;50.962;5.340;2022-08-20T00:46:44;4.20;;;3.55;;
40847;SDS011;26570;50.962;5.340;2022-08-20T00:49:30;7.60;;;4.03;;
40847;SDS011;26570;50.962;5.340;2022-08-20T00:52:17;15.52;;;4.30;;
40847;SDS011;26570;50.962;5.340;2022-08-20T00:55:04;9.57;;;4.15;;
40847;SDS011;26570;50.962;5.340;2022-08-20T00:57:52;8.07;;;4.78;;
40847;SDS011;26570;50.962;5.340;2022-08-20T01:00:40;8.20;;;4.63;;
40847;SDS011;26570;50.962;5.340;2022-08-20T01:03:27;13.65;;;5.88;;
40847;SDS011;26570;50.962;5.340;2022-08-20T01:06:12;8.52;;;4.72;;
40847;SDS011;26570;50.962;5.340;2022-08-20T01:08:57;10.27;;;4.93;;
40847;SDS011;26570;50.962;5.340;2022-08-20T01:11:46;8.45;;;4.43;;
40847;SDS011;26570;50.962;5.340;2022-08-20T01:14:31;7.45;;;5.38;;
40847;SDS011;26570;50.962;5.340;2022-08-20T01:17:20;10.75;;;5.07;;
40847;SDS011;26570;50.962;5.340;2022-08-20T01:20:12;10.05;;;4.78;;
40847;SDS011;26570;50.962;5.340;2022-08-20T01:23:09;7.63;;;5.40;;
40847;SDS011;26570;50.962;5.340;2022-08-20T01:26:15;12.52;;;5.00;;
40847;SDS011;26570;50.962;5.340;2022-08-20T01:29:12;13.45;;;5.80;;
40847;SDS011;26570;50.962;5.340;2022-08-20T01:32:02;8.57;;;5.88;;
40847;SDS011;26570;50.962;5.340;2022-08-20T01:34:48;10.52;;;5.68;;
40847;SDS011;26570;50.962;5.340;2022-08-20T01:37:32;9.35;;;6.15;;
40847;SDS011;26570;50.962;5.340;2022-08-20T01:40:20;8.95;;;6.50;;
40847;SDS011;26570;50.962;5.340;2022-08-20T01:43:15;17.13;;;8.13;;
40847;SDS011;26570;50.962;5.340;2022-08-20T01:46:00;11.70;;;6.63;;
40847;SDS011;26570;50.962;5.340;2022-08-20T01:48:45;8.75;;;6.30;;
40847;SDS011;26570;50.962;5.340;2022-08-20T01:51:30;10.75;;;5.95;;
40847;SDS011;26570;50.962;5.340;2022-08-20T01:54:15;10.98;;;6.88;;
40847;SDS011;26570;50.962;5.340;2022-08-20T01:57:01;13.63;;;6.90;;
40847;SDS011;26570;50.962;5.340;2022-08-20T01:59:55;12.93;;;6.90;;
40847;SDS011;26570;50.962;5.340;2022-08-20T02:02:39;11.05;;;7.32;;
40847;SDS011;26570;50.962;5.340;2022-08-20T02:05:24;9.35;;;7.10;;
40847;SDS011;26570;50.962;5.340;2022-08-20T02:08:09;13.00;;;7.40;;
40847;SDS011;26570;50.962;5.340;2022-08-20T02:10:54;12.25;;;7.75;;
40847;SDS011;26570;50.962;5.340;2022-08-20T02:13:39;10.88;;;7.65;;
40847;SDS011;26570;50.962;5.340;2022-08-20T02:16:25;12.98;;;7.05;;
40847;SDS011;26570;50.962;5.340;2022-08-20T02:19:14;10.88;;;7.50;;
40847;SDS011;26570;50.962;5.340;2022-08-20T02:22:05;11.80;;;8.50;;
40847;SDS011;26570;50.962;5.340;2022-08-20T02:25:00;12.70;;;8.33;;
40847;SDS011;26570;50.962;5.340;2022-08-20T02:27:45;12.70;;;8.85;;
40847;SDS011;26570;50.962;5.340;2022-08-20T02:30:33;15.33;;;7.57;;
40847;SDS011;26570;50.962;5.340;2022-08-20T02:33:23;13.70;;;8.87;;
40847;SDS011;26570;50.962;5.340;2022-08-20T02:36:08;12.00;;;7.70;;
40847;SDS011;26570;50.962;5.340;2022-08-20T02:38:55;7.80;;;6.57;;
40847;SDS011;26570;50.962;5.340;2022-08-20T02:41:40;14.00;;;7.93;;
40847;SDS011;26570;50.962;5.340;2022-08-20T02:44:25;10.07;;;7.30;;
40847;SDS011;26570;50.962;5.340;2022-08-20T02:47:10;11.83;;;7.87;;
40847;SDS011;26570;50.962;5.340;2022-08-20T02:49:56;11.50;;;7.33;;
40847;SDS011;26570;50.962;5.340;2022-08-20T02:52:42;11.40;;;7.27;;
40847;SDS011;26570;50.962;5.340;2022-08-20T02:55:27;13.27;;;8.57;;
40847;SDS011;26570;50.962;5.340;2022-08-20T02:58:12;15.07;;;7.70;;
40847;SDS011;26570;50.962;5.340;2022-08-20T03:00:58;8.33;;;6.50;;
40847;SDS011;26570;50.962;5.340;2022-08-20T03:03:44;13.20;;;7.20;;
40847;SDS011;26570;50.962;5.340;2022-08-20T03:06:29;11.63;;;6.70;;
40847;SDS011;26570;50.962;5.340;2022-08-20T03:09:14;12.97;;;6.37;;
40847;SDS011;26570;50.962;5.340;2022-08-20T03:11:59;10.03;;;5.80;;
40847;SDS011;26570;50.962;5.340;2022-08-20T03:14:43;12.43;;;5.97;;
40847;SDS011;26570;50.962;5.340;2022-08-20T03:17:29;11.13;;;5.73;;
40847;SDS011;26570;50.962;5.340;2022-08-20T03:20:14;12.63;;;5.10;;
40847;SDS011;26570;50.962;5.340;2022-08-20T03:22:59;10.10;;;5.23;;
40847;SDS011;26570;50.962;5.340;2022-08-20T03:25:44;12.10;;;5.37;;
40847;SDS011;26570;50.962;5.340;2022-08-20T03:28:29;14.30;;;5.30;;
40847;SDS011;26570;50.962;5.340;2022-08-20T03:31:15;12.90;;;5.47;;
40847;SDS011;26570;50.962;5.340;2022-08-20T03:34:00;8.67;;;5.23;;
40847;SDS011;26570;50.962;5.340;2022-08-20T03:36:45;11.13;;;4.53;;
40847;SDS011;26570;50.962;5.340;2022-08-20T03:39:29;13.63;;;5.03;;
40847;SDS011;26570;50.962;5.340;2022-08-20T03:42:14;17.30;;;5.60;;
40847;SDS011;26570;50.962;5.340;2022-08-20T03:44:59;8.50;;;4.50;;
40847;SDS011;26570;50.962;5.340;2022-08-20T03:47:44;11.00;;;4.60;;
40847;SDS011;26570;50.962;5.340;2022-08-20T03:50:30;17.10;;;4.20;;
40847;SDS011;26570;50.962;5.340;2022-08-20T03:53:16;11.93;;;4.20;;
40847;SDS011;26570;50.962;5.340;2022-08-20T03:56:02;11.43;;;3.63;;
40847;SDS011;26570;50.962;5.340;2022-08-20T03:58:48;13.43;;;3.40;;
40847;SDS011;26570;50.962;5.340;2022-08-20T04:01:33;9.60;;;2.67;;
40847;SDS011;26570;50.962;5.340;2022-08-20T04:04:18;14.03;;;3.50;;
40847;SDS011;26570;50.962;5.340;2022-08-20T04:07:16;14.10;;;3.50;;
40847;SDS011;26570;50.962;5.340;2022-08-20T04:10:08;17.83;;;2.43;;
40847;SDS011;26570;50.962;5.340;2022-08-20T04:12:54;8.50;;;1.97;;
40847;SDS011;26570;50.962;5.340;2022-08-20T04:15:39;13.17;;;2.10;;
40847;SDS011;26570;50.962;5.340;2022-08-20T04:18:25;16.90;;;2.73;;
40847;SDS011;26570;50.962;5.340;2022-08-20T04:21:10;10.23;;;2.43;;
40847;SDS011;26570;50.962;5.340;2022-08-20T04:23:54;15.37;;;2.80;;
40847;SDS011;26570;50.962;5.340;2022-08-20T04:26:39;13.00;;;2.73;;
40847;SDS011;26570;50.962;5.340;2022-08-20T04:29:24;12.67;;;2.90;;
40847;SDS011;26570;50.962;5.340;2022-08-20T04:32:10;14.53;;;2.40;;
40847;SDS011;26570;50.962;5.340;2022-08-20T04:34:55;13.83;;;3.30;;
40847;SDS011;26570;50.962;5.340;2022-08-20T04:37:40;13.50;;;1.93;;
40847;SDS011;26570;50.962;5.340;2022-08-20T04:40:25;12.23;;;2.60;;
40847;SDS011;26570;50.962;5.340;2022-08-20T04:43:34;22.20;;;3.80;;
40847;SDS011;26570;50.962;5.340;2022-08-20T04:46:21;18.33;;;3.53;;
40847;SDS011;26570;50.962;5.340;2022-08-20T04:49:08;19.33;;;3.67;;
40847;SDS011;26570;50.962;5.340;2022-08-20T04:51:52;13.83;;;3.70;;
40847;SDS011;26570;50.962;5.340;2022-08-20T04:54:37;19.00;;;4.67;;
40847;SDS011;26570;50.962;5.340;2022-08-20T04:57:23;21.47;;;5.23;;
40847;SDS011;26570;50.962;5.340;2022-08-20T05:00:13;21.23;;;5.33;;
40847;SDS011;26570;50.962;5.340;2022-08-20T05:03:00;18.87;;;5.23;;
40847;SDS011;26570;50.962;5.340;2022-08-20T05:05:45;18.63;;;5.37;;
40847;SDS011;26570;50.962;5.340;2022-08-20T05:08:31;18.53;;;5.83;;
40847;SDS011;26570;50.962;5.340;2022-08-20T05:11:16;18.10;;;6.20;;
40847;SDS011;26570;50.962;5.340;2022-08-20T05:14:04;20.57;;;6.80;;
40847;SDS011;26570;50.962;5.340;2022-08-20T05:16:51;22.20;;;7.27;;
40847;SDS011;26570;50.962;5.340;2022-08-20T05:19:36;26.90;;;6.73;;
40847;SDS011;26570;50.962;5.340;2022-08-20T05:22:21;23.20;;;7.10;;
40847;SDS011;26570;50.962;5.340;2022-08-20T05:25:07;32.83;;;7.80;;
40847;SDS011;26570;50.962;5.340;2022-08-20T05:27:54;22.30;;;7.33;;
40847;SDS011;26570;50.962;5.340;2022-08-20T05:30:44;22.13;;;7.53;;
40847;SDS011;26570;50.962;5.340;2022-08-20T05:33:29;27.70;;;7.97;;
40847;SDS011;26570;50.962;5.340;2022-08-20T05:36:14;22.10;;;7.17;;
40847;SDS011;26570;50.962;5.340;2022-08-20T05:38:59;27.83;;;6.60;;
40847;SDS011;26570;50.962;5.340;2022-08-20T05:41:44;26.50;;;7.87;;
40847;SDS011;26570;50.962;5.340;2022-08-20T05:44:29;18.10;;;5.60;;
40847;SDS011;26570;50.962;5.340;2022-08-20T05:47:14;28.67;;;6.00;;
40847;SDS011;26570;50.962;5.340;2022-08-20T05:50:02;23.67;;;7.33;;
40847;SDS011;26570;50.962;5.340;2022-08-20T05:52:48;26.67;;;6.13;;
40847;SDS011;26570;50.962;5.340;2022-08-20T05:55:33;25.07;;;6.13;;
40847;SDS011;26570;50.962;5.340;2022-08-20T05:58:24;24.03;;;6.53;;
40847;SDS011;26570;50.962;5.340;2022-08-20T06:01:12;28.50;;;6.20;;
40847;SDS011;26570;50.962;5.340;2022-08-20T06:03:56;22.50;;;5.17;;
40847;SDS011;26570;50.962;5.340;2022-08-20T06:07:03;21.52;;;4.88;;
40847;SDS011;26570;50.962;5.340;2022-08-20T06:09:49;31.80;;;7.13;;
40847;SDS011;26570;50.962;5.340;2022-08-20T06:12:34;27.00;;;5.70;;
40847;SDS011;26570;50.962;5.340;2022-08-20T06:15:19;35.27;;;7.20;;
40847;SDS011;26570;50.962;5.340;2022-08-20T06:18:04;29.90;;;6.27;;
40847;SDS011;26570;50.962;5.340;2022-08-20T06:20:53;30.00;;;6.00;;
40847;SDS011;26570;50.962;5.340;2022-08-20T06:23:38;31.60;;;5.90;;
40847;SDS011;26570;50.962;5.340;2022-08-20T06:26:22;32.70;;;7.20;;
40847;SDS011;26570;50.962;5.340;2022-08-20T06:29:07;37.67;;;9.53;;
40847;SDS011;26570;50.962;5.340;2022-08-20T06:31:51;39.17;;;8.83;;
40847;SDS011;26570;50.962;5.340;2022-08-20T06:34:37;31.27;;;7.90;;
40847;SDS011;26570;50.962;5.340;2022-08-20T06:37:23;48.30;;;9.30;;
40847;SDS011;26570;50.962;5.340;2022-08-20T06:40:11;43.20;;;9.50;;
40847;SDS011;26570;50.962;5.340;2022-08-20T06:43:02;35.73;;;9.47;;
40847;SDS011;26570;50.962;5.340;2022-08-20T06:45:47;43.50;;;9.70;;
40847;SDS011;26570;50.962;5.340;2022-08-20T06:48:31;42.33;;;10.23;;
40847;SDS011;26570;50.962;5.340;2022-08-20T06:51:16;44.80;;;11.77;;
40847;SDS011;26570;50.962;5.340;2022-08-20T06:54:01;38.40;;;10.60;;
40847;SDS011;26570;50.962;5.340;2022-08-20T06:56:46;35.93;;;9.30;;
40847;SDS011;26570;50.962;5.340;2022-08-20T06:59:31;48.50;;;9.93;;
40847;SDS011;26570;50.962;5.340;2022-08-20T07:02:16;58.07;;;12.87;;
40847;SDS011;26570;50.962;5.340;2022-08-20T07:05:01;43.63;;;11.17;;
40847;SDS011;26570;50.962;5.340;2022-08-20T07:07:48;42.07;;;11.07;;
40847;SDS011;26570;50.962;5.340;2022-08-20T07:10:33;50.87;;;11.80;;
40847;SDS011;26570;50.962;5.340;2022-08-20T07:13:20;52.77;;;11.97;;
40847;SDS011;26570;50.962;5.340;2022-08-20T07:16:07;56.33;;;13.93;;
40847;SDS011;26570;50.962;5.340;2022-08-20T07:18:52;45.10;;;12.27;;
40847;SDS011;26570;50.962;5.340;2022-08-20T07:21:37;48.37;;;13.47;;
40847;SDS011;26570;50.962;5.340;2022-08-20T07:24:22;39.80;;;13.03;;
40847;SDS011;26570;50.962;5.340;2022-08-20T07:27:07;48.63;;;14.93;;
40847;SDS011;26570;50.962;5.340;2022-08-20T07:29:52;53.90;;;13.60;;
40847;SDS011;26570;50.962;5.340;2022-08-20T07:32:56;42.20;;;12.20;;
40847;SDS011;26570;50.962;5.340;2022-08-20T07:35:41;40.67;;;12.90;;
40847;SDS011;26570;50.962;5.340;2022-08-20T07:38:27;48.37;;;13.73;;
40847;SDS011;26570;50.962;5.340;2022-08-20T07:41:13;42.17;;;13.60;;
40847;SDS011;26570;50.962;5.340;2022-08-20T07:43:58;45.40;;;12.57;;
40847;SDS011;26570;50.962;5.340;2022-08-20T07:46:42;52.50;;;15.50;;
40847;SDS011;26570;50.962;5.340;2022-08-20T07:49:27;41.87;;;14.33;;
40847;SDS011;26570;50.962;5.340;2022-08-20T07:52:12;46.90;;;14.80;;
40847;SDS011;26570;50.962;5.340;2022-08-20T07:54:58;49.00;;;14.50;;
40847;SDS011;26570;50.962;5.340;2022-08-20T07:57:43;47.20;;;15.20;;
40847;SDS011;26570;50.962;5.340;2022-08-20T08:00:29;48.80;;;14.07;;
40847;SDS011;26570;50.962;5.340;2022-08-20T08:03:14;42.20;;;14.43;;
40847;SDS011;26570;50.962;5.340;2022-08-20T08:05:59;39.40;;;13.80;;
40847;SDS011;26570;50.962;5.340;2022-08-20T08:08:44;35.50;;;14.07;;
40847;SDS011;26570;50.962;5.340;2022-08-20T08:11:30;43.10;;;14.43;;
40847;SDS011;26570;50.962;5.340;2022-08-20T08:14:20;38.23;;;13.83;;
40847;SDS011;26570;50.962;5.340;2022-08-20T08:17:09;41.70;;;15.45;;
40847;SDS011;26570;50.962;5.340;2022-08-20T08:19:55;35.87;;;13.07;;
40847;SDS011;26570;50.962;5.340;2022-08-20T08:22:40;36.38;;;14.35;;
40847;SDS011;26570;50.962;5.340;2022-08-20T08:25:25;39.50;;;13.53;;
40847;SDS011;26570;50.962;5.340;2022-08-20T08:28:11;37.53;;;13.68;;
40847;SDS011;26570;50.962;5.340;2022-08-20T08:30:57;31.07;;;12.33;;
40847;SDS011;26570;50.962;5.340;2022-08-20T08:33:42;32.30;;;12.30;;
40847;SDS011;26570;50.962;5.340;2022-08-20T08:36:27;35.25;;;12.68;;
40847;SDS011;26570;50.962;5.340;2022-08-20T08:39:11;29.98;;;12.30;;
40847;SDS011;26570;50.962;5.340;2022-08-20T08:41:56;28.00;;;10.43;;
40847;SDS011;26570;50.962;5.340;2022-08-20T08:44:43;30.70;;;11.63;;
40847;SDS011;26570;50.962;5.340;2022-08-20T08:47:29;31.77;;;12.02;;
40847;SDS011;26570;50.962;5.340;2022-08-20T08:50:25;30.70;;;10.90;;
40847;SDS011;26570;50.962;5.340;2022-08-20T08:53:24;34.63;;;11.00;;
40847;SDS011;26570;50.962;5.340;2022-08-20T08:56:12;31.23;;;11.98;;
40847;SDS011;26570;50.962;5.340;2022-08-20T08:59:02;31.95;;;10.98;;
40847;SDS011;26570;50.962;5.340;2022-08-20T09:01:54;33.78;;;11.18;;
40847;SDS011;26570;50.962;5.340;2022-08-20T09:04:41;31.70;;;11.48;;
40847;SDS011;26570;50.962;5.340;2022-08-20T09:07:27;37.42;;;13.20;;
40847;SDS011;26570;50.962;5.340;2022-08-20T09:10:15;28.73;;;11.38;;
40847;SDS011;26570;50.962;5.340;2022-08-20T09:13:00;25.63;;;10.88;;
40847;SDS011;26570;50.962;5.340;2022-08-20T09:15:46;32.92;;;11.38;;
40847;SDS011;26570;50.962;5.340;2022-08-20T09:18:31;28.45;;;11.43;;
40847;SDS011;26570;50.962;5.340;2022-08-20T09:21:16;34.35;;;11.35;;
40847;SDS011;26570;50.962;5.340;2022-08-20T09:24:01;33.80;;;10.93;;
40847;SDS011;26570;50.962;5.340;2022-08-20T09:26:47;24.60;;;10.20;;
40847;SDS011;26570;50.962;5.340;2022-08-20T09:29:32;28.88;;;10.13;;
40847;SDS011;26570;50.962;5.340;2022-08-20T09:32:19;27.85;;;10.88;;
40847;SDS011;26570;50.962;5.340;2022-08-20T09:35:05;22.33;;;10.18;;
40847;SDS011;26570;50.962;5.340;2022-08-20T09:37:50;26.23;;;9.10;;
40847;SDS011;26570;50.962;5.340;2022-08-20T09:40:36;22.10;;;11.52;;
40847;SDS011;26570;50.962;5.340;2022-08-20T09:43:21;26.17;;;11.98;;
40847;SDS011;26570;50.962;5.340;2022-08-20T09:46:05;25.95;;;11.60;;
40847;SDS011;26570;50.962;5.340;2022-08-20T09:48:50;24.67;;;11.80;;
40847;SDS011;26570;50.962;5.340;2022-08-20T09:51:35;22.80;;;11.00;;
40847;SDS011;26570;50.962;5.340;2022-08-20T09:54:20;23.38;;;11.77;;
40847;SDS011;26570;50.962;5.340;2022-08-20T09:57:05;21.08;;;10.07;;
40847;SDS011;26570;50.962;5.340;2022-08-20T09:59:59;20.73;;;10.85;;
40847;SDS011;26570;50.962;5.340;2022-08-20T10:02:48;21.10;;;10.13;;
40847;SDS011;26570;50.962;5.340;2022-08-20T10:05:33;22.20;;;9.57;;
40847;SDS011;26570;50.962;5.340;2022-08-20T10:08:18;20.90;;;9.98;;
40847;SDS011;26570;50.962;5.340;2022-08-20T10:11:03;22.30;;;9.70;;
40847;SDS011;26570;50.962;5.340;2022-08-20T10:13:47;19.60;;;9.90;;
40847;SDS011;26570;50.962;5.340;2022-08-20T10:16:32;22.67;;;11.75;;
40847;SDS011;26570;50.962;5.340;2022-08-20T10:19:17;31.02;;;12.38;;
40847;SDS011;26570;50.962;5.340;2022-08-20T10:22:02;29.02;;;11.55;;
40847;SDS011;26570;50.962;5.340;2022-08-20T10:24:47;30.65;;;13.27;;
40847;SDS011;26570;50.962;5.340;2022-08-20T10:27:32;25.27;;;12.88;;
40847;SDS011;26570;50.962;5.340;2022-08-20T10:30:18;22.75;;;11.02;;
40847;SDS011;26570;50.962;5.340;2022-08-20T10:33:03;22.90;;;11.32;;
40847;SDS011;26570;50.962;5.340;2022-08-20T10:35:48;29.52;;;11.88;;
40847;SDS011;26570;50.962;5.340;2022-08-20T10:38:33;20.70;;;10.68;;
40847;SDS011;26570;50.962;5.340;2022-08-20T10:41:18;19.58;;;10.65;;
40847;SDS011;26570;50.962;5.340;2022-08-20T10:44:03;19.73;;;9.88;;
40847;SDS011;26570;50.962;5.340;2022-08-20T10:46:48;23.20;;;9.70;;
40847;SDS011;26570;50.962;5.340;2022-08-20T10:49:33;19.10;;;9.38;;
40847;SDS011;26570;50.962;5.340;2022-08-20T10:52:20;20.02;;;8.73;;
40847;SDS011;26570;50.962;5.340;2022-08-20T10:55:05;18.40;;;7.72;;
40847;SDS011;26570;50.962;5.340;2022-08-20T10:57:50;20.83;;;8.10;;
40847;SDS011;26570;50.962;5.340;2022-08-20T11:00:35;13.18;;;6.47;;
40847;SDS011;26570;50.962;5.340;2022-08-20T11:03:20;16.95;;;5.40;;
40847;SDS011;26570;50.962;5.340;2022-08-20T11:06:08;12.82;;;4.00;;
40847;SDS011;26570;50.962;5.340;2022-08-20T11:08:53;16.80;;;4.00;;
40847;SDS011;26570;50.962;5.340;2022-08-20T11:11:39;16.77;;;4.55;;
40847;SDS011;26570;50.962;5.340;2022-08-20T11:14:23;9.88;;;1.73;;
40847;SDS011;26570;50.962;5.340;2022-08-20T11:17:08;13.00;;;2.65;;
40847;SDS011;26570;50.962;5.340;2022-08-20T11:19:55;17.70;;;5.50;;
40847;SDS011;26570;50.962;5.340;2022-08-20T11:22:40;13.30;;;4.28;;
40847;SDS011;26570;50.962;5.340;2022-08-20T11:25:25;9.68;;;2.28;;
40847;SDS011;26570;50.962;5.340;2022-08-20T11:28:11;10.25;;;2.17;;
40847;SDS011;26570;50.962;5.340;2022-08-20T11:30:56;11.07;;;1.80;;
40847;SDS011;26570;50.962;5.340;2022-08-20T11:33:40;9.35;;;1.95;;
40847;SDS011;26570;50.962;5.340;2022-08-20T11:36:25;6.70;;;1.30;;
40847;SDS011;26570;50.962;5.340;2022-08-20T11:39:10;9.25;;;1.55;;
40847;SDS011;26570;50.962;5.340;2022-08-20T11:41:55;9.68;;;1.75;;
40847;SDS011;26570;50.962;5.340;2022-08-20T11:44:40;8.93;;;1.30;;
40847;SDS011;26570;50.962;5.340;2022-08-20T11:47:26;10.80;;;1.80;;
40847;SDS011;26570;50.962;5.340;2022-08-20T11:50:14;9.57;;;2.05;;
40847;SDS011;26570;50.962;5.340;2022-08-20T11:53:01;8.93;;;1.60;;
40847;SDS011;26570;50.962;5.340;2022-08-20T11:55:45;11.75;;;1.70;;
40847;SDS011;26570;50.962;5.340;2022-08-20T11:58:31;10.45;;;1.58;;
40847;SDS011;26570;50.962;5.340;2022-08-20T12:01:16;12.30;;;2.20;;
40847;SDS011;26570;50.962;5.340;2022-08-20T12:04:01;8.00;;;1.80;;
40847;SDS011;26570;50.962;5.340;2022-08-20T12:06:46;10.82;;;2.88;;
40847;SDS011;26570;50.962;5.340;2022-08-20T12:09:30;5.30;;;1.40;;
40847;SDS011;26570;50.962;5.340;2022-08-20T12:12:15;8.07;;;1.40;;
40847;SDS011;26570;50.962;5.340;2022-08-20T12:15:00;5.15;;;1.45;;
40847;SDS011;26570;50.962;5.340;2022-08-20T12:17:45;10.07;;;1.42;;
40847;SDS011;26570;50.962;5.340;2022-08-20T12:20:30;5.93;;;1.00;;
40847;SDS011;26570;50.962;5.340;2022-08-20T12:23:16;7.50;;;0.88;;
40847;SDS011;26570;50.962;5.340;2022-08-20T12:26:01;6.72;;;0.70;;
40847;SDS011;26570;50.962;5.340;2022-08-20T12:28:46;8.00;;;0.63;;
40847;SDS011;26570;50.962;5.340;2022-08-20T12:31:31;3.15;;;0.50;;
40847;SDS011;26570;50.962;5.340;2022-08-20T12:34:16;10.15;;;0.90;;
40847;SDS011;26570;50.962;5.340;2022-08-20T12:37:02;8.40;;;0.60;;
40847;SDS011;26570;50.962;5.340;2022-08-20T12:39:49;11.00;;;0.80;;
40847;SDS011;26570;50.962;5.340;2022-08-20T12:42:36;4.63;;;0.77;;
40847;SDS011;26570;50.962;5.340;2022-08-20T12:45:21;4.75;;;0.60;;
40847;SDS011;26570;50.962;5.340;2022-08-20T12:48:07;4.15;;;0.57;;
40847;SDS011;26570;50.962;5.340;2022-08-20T12:50:54;6.75;;;0.55;;
40847;SDS011;26570;50.962;5.340;2022-08-20T12:53:38;3.90;;;0.52;;
40847;SDS011;26570;50.962;5.340;2022-08-20T12:56:23;4.57;;;0.50;;
40847;SDS011;26570;50.962;5.340;2022-08-20T12:59:07;5.03;;;0.50;;
40847;SDS011;26570;50.962;5.340;2022-08-20T13:01:52;4.57;;;0.50;;
40847;SDS011;26570;50.962;5.340;2022-08-20T13:04:38;3.17;;;0.38;;
40847;SDS011;26570;50.962;5.340;2022-08-20T13:07:22;4.18;;;0.40;;
40847;SDS011;26570;50.962;5.340;2022-08-20T13:10:08;4.22;;;0.40;;
40847;SDS011;26570;50.962;5.340;2022-08-20T13:12:54;6.20;;;0.40;;
40847;SDS011;26570;50.962;5.340;2022-08-20T13:15:40;8.35;;;0.88;;
40847;SDS011;26570;50.962;5.340;2022-08-20T13:18:24;4.30;;;0.40;;
40847;SDS011;26570;50.962;5.340;2022-08-20T13:21:09;6.95;;;0.40;;
40847;SDS011;26570;50.962;5.340;2022-08-20T13:23:54;7.70;;;0.40;;
40847;SDS011;26570;50.962;5.340;2022-08-20T13:26:39;3.47;;;0.40;;
40847;SDS011;26570;50.962;5.340;2022-08-20T13:29:23;4.70;;;0.30;;
40847;SDS011;26570;50.962;5.340;2022-08-20T13:32:08;4.78;;;0.50;;
40847;SDS011;26570;50.962;5.340;2022-08-20T13:34:53;4.82;;;0.47;;
40847;SDS011;26570;50.962;5.340;2022-08-20T13:37:38;4.60;;;0.40;;
40847;SDS011;26570;50.962;5.340;2022-08-20T13:40:24;3.22;;;0.73;;
40847;SDS011;26570;50.962;5.340;2022-08-20T13:43:08;4.88;;;0.50;;
40847;SDS011;26570;50.962;5.340;2022-08-20T13:45:53;4.32;;;0.90;;
40847;SDS011;26570;50.962;5.340;2022-08-20T13:48:38;3.03;;;0.30;;
40847;SDS011;26570;50.962;5.340;2022-08-20T13:51:22;3.55;;;0.40;;
40847;SDS011;26570;50.962;5.340;2022-08-20T13:54:07;4.03;;;0.40;;
40847;SDS011;26570;50.962;5.340;2022-08-20T13:56:52;6.70;;;0.60;;
40847;SDS011;26570;50.962;5.340;2022-08-20T13:59:51;7.30;;;0.50;;
40847;SDS011;26570;50.962;5.340;2022-08-20T14:02:39;6.32;;;0.50;;
40847;SDS011;26570;50.962;5.340;2022-08-20T14:05:25;4.40;;;0.60;;
40847;SDS011;26570;50.962;5.340;2022-08-20T14:08:15;5.60;;;0.40;;
40847;SDS011;26570;50.962;5.340;2022-08-20T14:11:04;5.50;;;0.40;;
40847;SDS011;26570;50.962;5.340;2022-08-20T14:13:49;5.00;;;0.70;;
40847;SDS011;26570;50.962;5.340;2022-08-20T14:16:34;4.63;;;0.60;;
40847;SDS011;26570;50.962;5.340;2022-08-20T14:19:20;3.67;;;0.50;;
40847;SDS011;26570;50.962;5.340;2022-08-20T14:22:05;6.38;;;0.88;;
40847;SDS011;26570;50.962;5.340;2022-08-20T14:24:50;4.57;;;0.40;;
40847;SDS011;26570;50.962;5.340;2022-08-20T14:27:35;6.60;;;0.40;;
40847;SDS011;26570;50.962;5.340;2022-08-20T14:30:21;5.05;;;0.50;;
40847;SDS011;26570;50.962;5.340;2022-08-20T14:33:11;5.28;;;0.55;;
40847;SDS011;26570;50.962;5.340;2022-08-20T14:35:56;6.55;;;0.50;;
40847;SDS011;26570;50.962;5.340;2022-08-20T14:38:40;5.80;;;0.40;;
40847;SDS011;26570;50.962;5.340;2022-08-20T14:41:28;5.28;;;0.40;;
40847;SDS011;26570;50.962;5.340;2022-08-20T14:44:13;4.43;;;0.47;;
40847;SDS011;26570;50.962;5.340;2022-08-20T14:50:07;4.00;;;0.40;;
40847;SDS011;26570;50.962;5.340;2022-08-20T14:52:54;4.22;;;0.40;;
40847;SDS011;26570;50.962;5.340;2022-08-20T14:55:39;5.07;;;0.40;;
40847;SDS011;26570;50.962;5.340;2022-08-20T14:58:24;5.60;;;0.82;;
40847;SDS011;26570;50.962;5.340;2022-08-20T15:01:08;5.38;;;0.50;;
40847;SDS011;26570;50.962;5.340;2022-08-20T15:03:53;7.03;;;0.40;;
40847;SDS011;26570;50.962;5.340;2022-08-20T15:06:39;3.85;;;0.50;;
40847;SDS011;26570;50.962;5.340;2022-08-20T15:09:24;2.35;;;0.40;;
40847;SDS011;26570;50.962;5.340;2022-08-20T15:12:12;4.63;;;0.40;;
40847;SDS011;26570;50.962;5.340;2022-08-20T15:14:57;4.25;;;0.40;;
40847;SDS011;26570;50.962;5.340;2022-08-20T15:17:46;5.07;;;0.50;;
40847;SDS011;26570;50.962;5.340;2022-08-20T15:20:33;5.28;;;0.40;;
40847;SDS011;26570;50.962;5.340;2022-08-20T15:23:18;3.15;;;0.40;;
40847;SDS011;26570;50.962;5.340;2022-08-20T15:26:04;4.88;;;0.40;;
40847;SDS011;26570;50.962;5.340;2022-08-20T15:28:49;3.30;;;0.30;;
40847;SDS011;26570;50.962;5.340;2022-08-20T15:31:34;2.97;;;0.40;;
40847;SDS011;26570;50.962;5.340;2022-08-20T15:34:19;6.38;;;0.60;;
40847;SDS011;26570;50.962;5.340;2022-08-20T15:37:07;3.90;;;0.40;;
40847;SDS011;26570;50.962;5.340;2022-08-20T15:39:54;4.70;;;0.43;;
40847;SDS011;26570;50.962;5.340;2022-08-20T15:42:39;2.22;;;0.30;;
40847;SDS011;26570;50.962;5.340;2022-08-20T15:45:24;5.57;;;0.30;;
40847;SDS011;26570;50.962;5.340;2022-08-20T15:48:16;2.97;;;0.32;;
40847;SDS011;26570;50.962;5.340;2022-08-20T15:57:11;4.60;;;0.40;;
40847;SDS011;26570;50.962;5.340;2022-08-20T16:06:02;1.80;;;0.40;;
40847;SDS011;26570;50.962;5.340;2022-08-20T16:14:36;2.45;;;0.30;;
40847;SDS011;26570;50.962;5.340;2022-08-20T16:20:25;3.13;;;0.30;;
40847;SDS011;26570;50.962;5.340;2022-08-20T16:23:19;2.22;;;0.32;;
40847;SDS011;26570;50.962;5.340;2022-08-20T16:26:13;3.20;;;0.57;;
40847;SDS011;26570;50.962;5.340;2022-08-20T16:29:11;3.20;;;0.40;;
40847;SDS011;26570;50.962;5.340;2022-08-20T16:32:09;7.05;;;0.38;;
40847;SDS011;26570;50.962;5.340;2022-08-20T16:35:53;3.75;;;0.40;;
40847;SDS011;26570;50.962;5.340;2022-08-20T16:38:22;5.53;;;0.40;;
40847;SDS011;26570;50.962;5.340;2022-08-20T16:41:17;1.25;;;0.28;;
40847;SDS011;26570;50.962;5.340;2022-08-20T16:44:14;2.25;;;0.40;;
40847;SDS011;26570;50.962;5.340;2022-08-20T16:47:24;2.75;;;0.30;;
40847;SDS011;26570;50.962;5.340;2022-08-20T16:50:15;2.33;;;0.40;;
40847;SDS011;26570;50.962;5.340;2022-08-20T16:53:16;2.97;;;0.30;;
40847;SDS011;26570;50.962;5.340;2022-08-20T16:56:03;2.63;;;0.35;;